Alameda, OR

6:52 AM PDT on August 21, 2014 (GMT -0700)
Portland-Troutdale | Change Station
CLOSE
Current Station
Airport
Location: Portland Troutdale,
Elevation: 36 ft
Nearby Weather Stations

Elev 36 ft 45.55 °N, 122.41 °W | Updated 59 minutes ago

Clear
Clear
53 °F
Feels Like 53 °F
N
0
Wind Variable Wind from North

Today
High -- | Low -- °F
--% Chance of Precip.
Yesterday
High -- | Low -- °F
Precip. -- in
6:18 AM 8:07 PM
Waning Crescent, 14% visible
Pressure 30.04 in
Visibility 10.0 miles
Clouds Clear
Dew Point 49 °F
Humidity 86%
Rainfall 0.00 in
Snow Depth Not available.
UV 0 out of 12
Pollen 3.80 out of 12
Ozone Good
PM2.5 Good
Flu Activity Not available.
METAR KTTD 211253Z AUTO 00000KT 10SM CLR 12/09 A3003 RMK AO2 SLP170 T01170094

More Conditions Fewer Conditions

Pressure 30.04 in
Visibility 10.0 miles
Clouds Clear
Dew Point 49 °F
Humidity 86%
Rainfall 0.00 in
Snow Depth Not available.
UV 0 out of 12
Pollen 3.80 out of 12
Ozone Good
PM2.5 Good
Flu Activity Not available.
METAR KTTD 211253Z AUTO 00000KT 10SM CLR 12/09 A3003 RMK AO2 SLP170 T01170094

More Conditions Fewer Conditions

10-Day Weather Forecast

Almanac

Astronomy

Aug. 21, 2014 Rise Set
Actual Time 6:18 AM PDT 8:07 PM PDT
Civil Twilight 5:46 AM PDT 8:39 PM PDT
Nautical Twilight 5:08 AM PDT 9:18 PM PDT
Astronomical Twilight 4:25 AM PDT 10:00 PM PDT
Moon 2:48 AM PDT 5:44 PM PDT
Length of Visible Light 14h 52m
Length of Day
13h 49m
Tomorrow will be 2m 58s shorter.
Waning Crescent, 14% of the Moon is Illuminated
Today
Waning Crescent
Aug 25
New
Sep 2
First Quarter
Sep 8
Full
Sep 15
Last Quarter

Today's Extremes

State Highs State Lows

Community

WunderPhotos

Upload Photos

1,745,918 photos uploaded!

WunderBlogs® & News

Nearby

Air Quality

  Air Quality AQ Index Pollutant
Yesterday Good
OZONE
Yesterday Good
PM2.5
Current Good
PM2.5
Current Good
OZONE
Thursday Good
PM2.5

Snow Depth

Station Depth Elevation
North Fork 1 in 3120 ft
Seine Creek 0 in 2000 ft
Blazed Alder 0 in 3650 ft
Greenpoint 1 in 3200 ft
Red Hill 0 in 4400 ft

Earthquake Activity

City Distance Mag. Time & Date
No recent earthquake activity has been reported nearby.
Minimum magnitude displayed is 2.5.

Coastal Water Temperatures

Place Temperature
No Stations Reporting

Nearby Weather Stations